createdAt,value
2018-09-17T00:02:26.089Z,101448.58
2018-09-17T00:04:55.714Z,101449.77
2018-09-17T00:07:26.120Z,101452.51
2018-09-17T00:09:56.026Z,101447.92
2018-09-17T00:12:27.477Z,101443.99
2018-09-17T00:14:57.585Z,101446.61
2018-09-17T00:17:27.808Z,101450.28
2018-09-17T00:19:58.121Z,101445.61
2018-09-17T00:22:27.568Z,101444.84
2018-09-17T00:24:57.556Z,101446.38
2018-09-17T00:27:27.610Z,101441.45
2018-09-17T00:29:57.494Z,101439.02
2018-09-17T00:32:27.981Z,101437.47
2018-09-17T00:34:57.353Z,101431.64
2018-09-17T00:37:26.077Z,101440.09
2018-09-17T00:39:56.124Z,101434.27
2018-09-17T00:42:26.213Z,101433.53
2018-09-17T00:44:56.180Z,101435.84
2018-09-17T00:47:26.188Z,101432.69
2018-09-17T00:49:56.556Z,101433.00
2018-09-17T00:52:27.224Z,101431.34
2018-09-17T00:54:57.070Z,101432.86
2018-09-17T00:57:27.153Z,101438.67
2018-09-17T00:59:56.714Z,101433.01
2018-09-17T01:02:26.957Z,101436.48
2018-09-17T01:04:56.913Z,101432.00
2018-09-17T01:07:27.116Z,101433.16
2018-09-17T01:09:57.585Z,101432.04
2018-09-17T01:12:27.242Z,101434.70
2018-09-17T01:14:56.785Z,101430.22
2018-09-17T01:17:27.056Z,101436.15
2018-09-17T01:19:57.182Z,101436.23
2018-09-17T01:22:27.258Z,101435.30
2018-09-17T01:24:56.146Z,101435.14
2018-09-17T01:27:25.204Z,101436.53
2018-09-17T01:29:53.656Z,101436.64
2018-09-17T01:32:22.933Z,101428.46
2018-09-17T01:34:51.335Z,101420.63
2018-09-17T01:37:19.729Z,101423.25
2018-09-17T01:39:48.058Z,101427.17
2018-09-17T01:42:16.381Z,101431.67
2018-09-17T01:44:45.601Z,101430.17
2018-09-17T01:47:13.930Z,101424.74
2018-09-17T01:49:42.264Z,101418.11
2018-09-17T01:52:10.640Z,101420.27
2018-09-17T01:54:38.956Z,101424.41
2018-09-17T01:57:07.301Z,101422.23
2018-09-17T01:59:35.649Z,101418.98
2018-09-17T02:02:03.997Z,101413.39
2018-09-17T02:04:32.321Z,101412.44
2018-09-17T02:07:01.670Z,101417.50
2018-09-17T02:09:29.999Z,101421.45
2018-09-17T02:11:58.329Z,101431.47
2018-09-17T02:14:27.671Z,101426.31
2018-09-17T02:16:56.945Z,101430.89
2018-09-17T02:19:27.803Z,101432.50
2018-09-17T02:21:56.960Z,101434.38
2018-09-17T02:24:28.089Z,101440.59
2018-09-17T02:26:57.357Z,101434.34
2018-09-17T02:29:26.206Z,101441.23
2018-09-17T02:31:57.344Z,101440.31
2018-09-17T02:34:26.265Z,101436.01
2018-09-17T02:36:57.658Z,101443.41
2018-09-17T02:39:27.805Z,101431.80
2018-09-17T02:41:56.220Z,101433.50
2018-09-17T02:44:25.335Z,101441.73
2018-09-17T02:46:56.193Z,101437.98
2018-09-17T02:49:26.189Z,101426.39
2018-09-17T02:51:58.141Z,101434.42
2018-09-17T02:54:28.256Z,101438.17
2018-09-17T02:56:59.135Z,101441.35
2018-09-17T02:59:28.565Z,101451.18
2018-09-17T03:01:57.685Z,101454.26
2018-09-17T03:04:27.093Z,101444.16
2018-09-17T03:06:57.078Z,101447.72
2018-09-17T03:09:27.696Z,101449.02
2018-09-17T03:11:57.316Z,101440.05
2018-09-17T03:14:29.417Z,101448.98
2018-09-17T03:17:11.881Z,101445.23
2018-09-17T03:19:42.121Z,101442.09
2018-09-17T03:22:12.160Z,101442.88
2018-09-17T03:24:40.508Z,101439.88
2018-09-17T03:27:09.321Z,101441.56
2018-09-17T03:29:38.542Z,101440.78
2018-09-17T03:32:06.883Z,101436.94
2018-09-17T03:34:35.249Z,101442.27
2018-09-17T03:37:03.578Z,101435.83
2018-09-17T03:39:31.967Z,101440.03
2018-09-17T03:42:00.294Z,101443.56
2018-09-17T03:44:28.672Z,101435.99
2018-09-17T03:46:58.013Z,101435.52
2018-09-17T03:49:27.039Z,101438.49
2018-09-17T03:51:58.273Z,101440.09
2018-09-17T03:54:29.080Z,101435.66
2018-09-17T03:56:58.319Z,101446.48
2018-09-17T03:59:29.072Z,101445.45
2018-09-17T04:01:58.309Z,101445.16
2018-09-17T04:04:27.935Z,101446.63
2018-09-17T04:06:56.264Z,101445.88
2018-09-17T04:09:26.160Z,101446.86
2018-09-17T04:11:55.838Z,101446.86
2018-09-17T04:14:25.232Z,101441.70
2018-09-17T04:16:54.766Z,101444.87
2018-09-17T04:19:24.830Z,101445.13
2018-09-17T04:21:56.301Z,101442.72
2018-09-17T04:24:26.136Z,101449.88
2018-09-17T04:26:56.741Z,101451.64
2018-09-17T04:29:26.617Z,101440.25
2018-09-17T04:31:55.995Z,101446.78
2018-09-17T04:34:27.807Z,101439.11
2018-09-17T04:36:57.640Z,101446.19
2018-09-17T04:39:27.145Z,101442.83
2018-09-17T04:41:56.376Z,101441.14
2018-09-17T04:44:26.444Z,101442.54
2018-09-17T04:46:56.309Z,101443.94
2018-09-17T04:49:26.213Z,101445.80
2018-09-17T04:51:57.453Z,101446.26
2018-09-17T04:54:26.289Z,101447.47
2018-09-17T04:56:57.140Z,101447.86
2018-09-17T04:59:26.401Z,101439.27
2018-09-17T05:01:57.881Z,101438.78
2018-09-17T05:04:27.168Z,101429.38
2018-09-17T05:06:56.573Z,101433.66
2018-09-17T05:09:27.226Z,101431.80
2018-09-17T05:11:56.296Z,101435.72
2018-09-17T05:14:26.395Z,101433.04
2018-09-17T05:16:57.605Z,101423.64
2018-09-17T05:19:27.093Z,101422.52
2018-09-17T05:21:58.036Z,101424.19
2018-09-17T05:24:27.412Z,101424.97
2018-09-17T05:26:57.167Z,101427.84
2018-09-17T05:29:28.277Z,101432.05
2018-09-17T05:31:58.117Z,101423.66
2018-09-17T05:34:28.492Z,101430.41
2018-09-17T05:36:57.945Z,101432.00
2018-09-17T05:39:26.818Z,101434.80
2018-09-17T05:41:56.455Z,101438.91
2018-09-17T05:44:26.303Z,101436.95
2018-09-17T05:46:55.937Z,101436.78
2018-09-17T05:49:26.309Z,101437.36
2018-09-17T05:51:56.258Z,101436.98
2018-09-17T05:54:26.308Z,101431.98
2018-09-17T05:56:56.270Z,101436.27
2018-09-17T05:59:26.200Z,101438.89
2018-09-17T06:01:57.883Z,101434.59
2018-09-17T06:04:27.432Z,101434.60
2018-09-17T06:06:56.377Z,101432.73
2018-09-17T06:09:25.829Z,101432.66
2018-09-17T06:11:56.425Z,101429.97
2018-09-17T06:14:26.377Z,101424.53
2018-09-17T06:16:56.140Z,101427.02
2018-09-17T06:19:25.460Z,101429.91
2018-09-17T06:21:55.312Z,101433.45
2018-09-17T06:24:25.265Z,101438.27
2018-09-17T06:26:53.604Z,101436.06
2018-09-17T06:29:21.997Z,101436.83
2018-09-17T06:31:50.344Z,101435.84
2018-09-17T06:34:18.682Z,101442.69
2018-09-17T06:36:47.024Z,101442.98
2018-09-17T06:39:16.981Z,101443.83
2018-09-17T06:41:45.309Z,101455.30
2018-09-17T06:44:14.696Z,101452.69
2018-09-17T06:46:44.057Z,101451.73
2018-09-17T06:49:12.389Z,101456.28
2018-09-17T06:51:40.708Z,101458.02
2018-09-17T06:54:10.168Z,101458.62
2018-09-17T06:56:39.501Z,101462.06
2018-09-17T06:59:07.879Z,101463.11
2018-09-17T07:01:36.305Z,101465.23
2018-09-17T07:04:04.696Z,101461.80
2018-09-17T07:06:33.973Z,101468.46
2018-09-17T07:09:02.474Z,101473.06
2018-09-17T07:11:30.902Z,101475.53
2018-09-17T07:13:59.285Z,101479.48
2018-09-17T07:16:27.622Z,101472.56
2018-09-17T07:18:56.416Z,101481.45
2018-09-17T07:21:26.232Z,101479.31
2018-09-17T07:23:56.833Z,101478.63
2018-09-17T07:26:27.340Z,101483.39
2018-09-17T07:28:56.333Z,101474.86
2018-09-17T07:31:26.847Z,101476.39
2018-09-17T07:33:56.543Z,101475.27
2018-09-17T07:36:26.809Z,101475.55
2018-09-17T07:38:57.109Z,101481.84
2018-09-17T07:41:26.921Z,101486.90
2018-09-17T07:43:56.538Z,101485.16
2018-09-17T07:46:25.893Z,101484.37
2018-09-17T07:48:56.216Z,101494.94
2018-09-17T07:51:25.806Z,101492.66
2018-09-17T07:53:54.973Z,101488.03
2018-09-17T07:56:24.161Z,101481.90
2018-09-17T07:58:53.800Z,101490.70
2018-09-17T08:01:22.814Z,101490.87
2018-09-17T08:03:53.873Z,101491.08
2018-09-17T08:06:22.410Z,101488.59
2018-09-17T08:08:50.812Z,101493.89
2018-09-17T08:11:19.251Z,101495.09
2018-09-17T08:13:47.754Z,101499.45
2018-09-17T08:16:16.167Z,101490.36
2018-09-17T08:18:44.654Z,101490.87
2018-09-17T08:21:13.017Z,101492.66
2018-09-17T08:23:41.501Z,101494.69
2018-09-17T08:26:09.866Z,101499.54
2018-09-17T08:28:38.273Z,101493.52
2018-09-17T08:31:06.726Z,101500.34
2018-09-17T08:33:35.207Z,101500.44
2018-09-17T08:36:04.669Z,101496.52
2018-09-17T08:38:34.209Z,101505.77
2018-09-17T08:41:02.822Z,101498.56
2018-09-17T08:43:32.173Z,101493.14
2018-09-17T08:46:02.362Z,101484.63
2018-09-17T08:48:30.689Z,101482.77
2018-09-17T08:50:59.297Z,101488.42
2018-09-17T08:53:28.755Z,101487.22
2018-09-17T08:56:04.945Z,101490.16
2018-09-17T08:58:34.751Z,101491.52
2018-09-17T09:01:04.277Z,101494.36
2018-09-17T09:03:37.833Z,101484.92
2018-09-17T09:06:18.194Z,101482.73
2018-09-17T09:08:46.637Z,101484.09
2018-09-17T09:11:26.012Z,101485.77
2018-09-17T09:14:01.116Z,101489.77
2018-09-17T09:16:29.443Z,101486.45
2018-09-17T09:18:58.614Z,101487.59
2018-09-17T09:21:28.152Z,101492.42
2018-09-17T09:23:58.460Z,101493.27
2018-09-17T09:26:27.452Z,101494.92
2018-09-17T09:28:56.589Z,101487.05
2018-09-17T09:31:26.442Z,101486.86
2018-09-17T09:33:56.865Z,101488.14
2018-09-17T09:36:26.540Z,101491.79
2018-09-17T09:38:55.493Z,101490.59
2018-09-17T09:41:25.401Z,101493.45
2018-09-17T09:43:55.501Z,101489.64
2018-09-17T09:46:25.634Z,101487.06
2018-09-17T09:48:56.194Z,101485.75
2018-09-17T09:51:26.162Z,101482.38
2018-09-17T09:53:55.994Z,101485.08
2018-09-17T09:56:26.441Z,101485.71
2018-09-17T09:58:56.496Z,101489.78
2018-09-17T10:01:27.281Z,101488.96
2018-09-17T10:04:31.197Z,101479.64
2018-09-17T10:07:00.565Z,101475.31
2018-09-17T10:09:35.482Z,101467.86
2018-09-17T10:12:09.336Z,101468.83
2018-09-17T10:14:42.937Z,101458.00
2018-09-17T10:17:17.612Z,101461.27
2018-09-17T10:19:48.822Z,101457.00
2018-09-17T10:22:18.747Z,101454.98
2018-09-17T10:24:48.009Z,101452.73
2018-09-17T10:27:18.227Z,101439.97
2018-09-17T10:29:46.774Z,101449.67
2018-09-17T10:32:16.156Z,101437.02
2018-09-17T10:34:44.509Z,101438.80
2018-09-17T10:37:13.855Z,101440.14
2018-09-17T10:39:43.204Z,101432.34
2018-09-17T10:42:12.033Z,101432.43
2018-09-17T10:44:41.285Z,101432.33
2018-09-17T10:47:10.489Z,101430.66
2018-09-17T10:49:39.744Z,101428.84
2018-09-17T10:52:09.022Z,101419.61
2018-09-17T10:54:38.337Z,101416.93
2018-09-17T10:57:07.727Z,101411.75
2018-09-17T10:59:36.912Z,101408.83
2018-09-17T11:02:06.289Z,101407.73
2018-09-17T11:04:34.676Z,101413.00
2018-09-17T11:07:03.972Z,101408.27
2018-09-17T11:09:32.302Z,101402.06
2018-09-17T11:12:01.658Z,101405.80
2018-09-17T11:14:30.908Z,101399.75
2018-09-17T11:17:00.129Z,101409.17
2018-09-17T11:19:29.498Z,101398.55
2018-09-17T11:21:58.830Z,101393.33
2018-09-17T11:24:28.251Z,101397.58
2018-09-17T11:26:58.688Z,101396.15
2018-09-17T11:29:28.169Z,101393.77
2018-09-17T11:31:58.524Z,101387.64
2018-09-17T11:34:28.304Z,101383.45
2018-09-17T11:36:58.629Z,101388.20
2018-09-17T11:39:29.348Z,101387.31
2018-09-17T11:41:58.737Z,101385.59
2018-09-17T11:44:27.805Z,101377.17
2018-09-17T11:46:57.197Z,101375.25
2018-09-17T11:49:26.473Z,101372.20
2018-09-17T11:51:55.591Z,101371.87
2018-09-17T11:54:24.709Z,101374.55
2018-09-17T11:56:56.389Z,101374.05
2018-09-17T11:59:26.520Z,101368.22
2018-09-17T12:02:01.228Z,101363.99
2018-09-17T12:04:32.009Z,101368.42
2018-09-17T12:07:05.660Z,101357.75
2018-09-17T12:09:34.023Z,101353.77
2018-09-17T12:12:02.430Z,101351.02
2018-09-17T12:14:30.753Z,101351.73
2018-09-17T12:16:59.171Z,101351.69
2018-09-17T12:19:28.169Z,101348.55
2018-09-17T12:21:57.543Z,101341.38
2018-09-17T12:24:26.300Z,101340.53
2018-09-17T12:26:56.441Z,101339.08
2018-09-17T12:29:25.029Z,101335.34
2018-09-17T12:31:54.705Z,101329.27
2018-09-17T12:34:24.697Z,101328.47
2018-09-17T12:36:54.437Z,101332.13
2018-09-17T12:39:23.793Z,101325.78
2018-09-17T12:41:54.813Z,101320.84
2018-09-17T12:44:26.479Z,101314.98
2018-09-17T12:46:56.146Z,101318.00
2018-09-17T12:49:26.496Z,101313.62
2018-09-17T12:51:57.073Z,101311.63
2018-09-17T12:54:27.303Z,101313.20
2018-09-17T12:56:58.078Z,101316.54
2018-09-17T12:59:27.581Z,101318.30
2018-09-17T13:01:57.781Z,101311.94
2018-09-17T13:04:26.596Z,101305.64
2018-09-17T13:06:56.745Z,101307.45
2018-09-17T13:09:26.596Z,101311.59
2018-09-17T13:11:56.538Z,101304.66
2018-09-17T13:14:27.336Z,101303.80
2018-09-17T13:16:57.213Z,101294.30
2018-09-17T13:19:27.740Z,101289.81
2018-09-17T13:21:58.100Z,101290.87
2018-09-17T13:24:27.384Z,101289.58
2018-09-17T13:26:58.097Z,101294.96
2018-09-17T13:29:27.432Z,101279.91
2018-09-17T13:31:56.689Z,101285.95
2018-09-17T13:34:26.358Z,101286.14
2018-09-17T13:36:56.638Z,101284.89
2018-09-17T13:39:26.521Z,101281.98
2018-09-17T13:41:56.557Z,101280.48
2018-09-17T13:44:26.608Z,101275.92
2018-09-17T13:46:55.748Z,101271.24
2018-09-17T13:49:25.172Z,101273.24
2018-09-17T13:51:55.813Z,101268.56
2018-09-17T13:54:25.547Z,101260.99
2018-09-17T13:56:54.284Z,101268.62
2018-09-17T13:59:22.648Z,101263.99
2018-09-17T14:01:51.080Z,101262.97
2018-09-17T14:04:20.479Z,101256.03
2018-09-17T14:06:48.821Z,101263.09
2018-09-17T14:09:17.189Z,101267.56
2018-09-17T14:11:46.436Z,101260.97
2018-09-17T14:14:17.461Z,101254.42
2018-09-17T14:16:46.000Z,101249.00
2018-09-17T14:19:14.718Z,101256.41
2018-09-17T14:21:43.958Z,101254.34
2018-09-17T14:24:13.180Z,101254.66
2018-09-17T14:26:41.610Z,101250.92
2018-09-17T14:29:10.842Z,101246.95
2018-09-17T14:31:45.553Z,101247.25
2018-09-17T14:34:14.780Z,101240.52
2018-09-17T14:36:44.104Z,101236.89
2018-09-17T14:39:12.485Z,101229.20
2018-09-17T14:41:40.804Z,101227.37
2018-09-17T14:44:09.170Z,101222.39
2018-09-17T14:46:37.518Z,101226.55
2018-09-17T14:49:05.840Z,101224.84
2018-09-17T14:51:34.237Z,101229.98
2018-09-17T14:54:03.660Z,101229.42
2018-09-17T14:56:32.021Z,101221.31
2018-09-17T14:59:00.359Z,101221.81
2018-09-17T15:01:28.901Z,101223.18
2018-09-17T15:03:58.285Z,101231.88
2018-09-17T15:06:27.751Z,101228.92
2018-09-17T15:08:56.633Z,101222.00
2018-09-17T15:11:26.186Z,101224.13
2018-09-17T15:13:56.171Z,101223.18
2018-09-17T15:16:26.589Z,101217.88
2018-09-17T15:18:56.195Z,101219.81
2018-09-17T15:21:25.808Z,101221.91
2018-09-17T15:23:55.778Z,101220.47
2018-09-17T15:26:26.309Z,101210.97
2018-09-17T15:28:55.790Z,101214.38
2018-09-17T15:31:25.645Z,101209.69
2018-09-17T15:33:56.463Z,101212.91
2018-09-17T15:36:27.131Z,101212.20
2018-09-17T15:38:56.818Z,101215.41
2018-09-17T15:41:27.269Z,101205.31
2018-09-17T15:43:59.245Z,101203.77
2018-09-17T15:46:28.644Z,101195.38
2018-09-17T15:48:58.034Z,101199.78
2018-09-17T15:51:28.274Z,101201.81
2018-09-17T15:53:57.727Z,101195.63
2018-09-17T15:56:28.606Z,101198.14
2018-09-17T15:58:58.811Z,101195.57
2018-09-17T16:01:29.584Z,101190.78
2018-09-17T16:03:58.954Z,101188.89
2018-09-17T16:06:29.272Z,101189.37
2018-09-17T16:08:58.992Z,101192.45
2018-09-17T16:11:27.349Z,101184.74
2018-09-17T16:13:56.717Z,101183.53
2018-09-17T16:16:26.700Z,101181.73
2018-09-17T16:18:56.749Z,101185.91
2018-09-17T16:21:26.653Z,101181.70
2018-09-17T16:23:56.757Z,101185.13
2018-09-17T16:26:26.673Z,101183.88
2018-09-17T16:28:56.730Z,101178.67
2018-09-17T16:31:27.387Z,101181.27
2018-09-17T16:33:57.751Z,101182.02
2018-09-17T16:36:27.734Z,101177.59
2018-09-17T16:38:57.220Z,101181.12
2018-09-17T16:41:26.667Z,101181.67
2018-09-17T16:43:56.748Z,101185.91
2018-09-17T16:46:27.794Z,101183.63
2018-09-17T16:48:58.363Z,101190.64
2018-09-17T16:51:31.245Z,101188.51
2018-09-17T16:54:00.372Z,101198.39
2018-09-17T16:56:29.138Z,101193.07
2018-09-17T16:58:58.206Z,101199.92
2018-09-17T17:01:27.283Z,101202.58
2018-09-17T17:03:56.696Z,101208.38
2018-09-17T17:06:25.944Z,101203.39
2018-09-17T17:08:54.873Z,101205.72
2018-09-17T17:11:24.847Z,101208.55
2018-09-17T17:13:53.883Z,101205.84
2018-09-17T17:16:23.081Z,101210.63
2018-09-17T17:18:51.446Z,101205.44
2018-09-17T17:21:19.915Z,101213.23
2018-09-17T17:23:48.327Z,101218.49
2018-09-17T17:26:17.753Z,101215.66
2018-09-17T17:28:46.097Z,101217.45
2018-09-17T17:31:14.471Z,101218.91
2018-09-17T17:33:42.874Z,101218.89
2018-09-17T17:36:12.133Z,101219.64
2018-09-17T17:38:40.545Z,101216.80
2018-09-17T17:41:09.158Z,101226.05
2018-09-17T17:43:37.590Z,101220.36
2018-09-17T17:46:06.415Z,101222.58
2018-09-17T17:48:35.665Z,101226.48
2018-09-17T17:51:04.232Z,101226.23
2018-09-17T17:53:32.565Z,101220.20
2018-09-17T17:56:02.105Z,101226.52
2018-09-17T17:58:30.436Z,101229.00
2018-09-17T18:00:59.747Z,101229.16
2018-09-17T18:03:28.025Z,101231.12
2018-09-17T18:05:56.764Z,101233.89
2018-09-17T18:08:26.801Z,101235.17
2018-09-17T18:10:58.261Z,101243.25
2018-09-17T18:13:27.748Z,101236.50
2018-09-17T18:15:56.753Z,101237.47
2018-09-17T18:18:27.324Z,101240.52
2018-09-17T18:20:56.952Z,101235.73
2018-09-17T18:23:27.620Z,101237.97
2018-09-17T18:25:57.025Z,101242.80
2018-09-17T18:28:27.633Z,101232.48
2018-09-17T18:30:56.676Z,101238.42
2018-09-17T18:33:26.654Z,101238.49
2018-09-17T18:35:57.032Z,101234.54
2018-09-17T18:38:27.805Z,101233.95
2018-09-17T18:40:56.830Z,101238.13
2018-09-17T18:43:26.762Z,101236.66
2018-09-17T18:45:56.273Z,101237.70
2018-09-17T18:48:27.674Z,101239.86
2018-09-17T18:50:56.876Z,101238.13
2018-09-17T18:53:26.412Z,101242.32
2018-09-17T18:55:56.814Z,101241.21
2018-09-17T18:58:27.625Z,101242.09
2018-09-17T19:00:56.516Z,101244.48
2018-09-17T19:03:26.804Z,101242.26
2018-09-17T19:05:56.335Z,101241.44
2018-09-17T19:08:25.861Z,101234.34
2018-09-17T19:10:55.260Z,101238.14
2018-09-17T19:13:24.886Z,101235.70
2018-09-17T19:15:54.818Z,101229.65
2018-09-17T19:18:25.801Z,101228.52
2018-09-17T19:20:56.927Z,101223.80
2018-09-17T19:23:31.658Z,101224.94
2018-09-17T19:26:01.258Z,101225.83
2018-09-17T19:28:35.966Z,101225.97
2018-09-17T19:31:04.324Z,101228.88
2018-09-17T19:33:32.693Z,101225.27
2018-09-17T19:36:03.117Z,101229.09
2018-09-17T19:38:36.975Z,101232.61
2018-09-17T19:41:06.293Z,101221.98
2018-09-17T19:43:34.854Z,101224.55
2018-09-17T19:46:09.116Z,101220.73
2018-09-17T19:48:37.701Z,101217.50
2018-09-17T19:51:11.450Z,101221.02
2018-09-17T19:53:39.820Z,101222.05
2018-09-17T19:56:08.341Z,101216.30
2018-09-17T19:58:42.916Z,101217.89
2018-09-17T20:01:11.353Z,101215.77
2018-09-17T20:03:39.697Z,101214.59
2018-09-17T20:06:14.435Z,101222.76
2018-09-17T20:08:43.715Z,101222.67
2018-09-17T20:11:12.049Z,101215.78
2018-09-17T20:13:40.393Z,101217.94
2018-09-17T20:16:21.901Z,101215.80
2018-09-17T20:18:50.237Z,101222.91
2018-09-17T20:21:18.944Z,101226.27
2018-09-17T20:23:47.436Z,101220.30
2018-09-17T20:26:16.705Z,101220.21
2018-09-17T20:28:45.098Z,101216.03
2018-09-17T20:31:13.447Z,101210.53
2018-09-17T20:33:42.092Z,101217.73
2018-09-17T20:36:10.536Z,101212.71
2018-09-17T20:38:38.903Z,101217.89
2018-09-17T20:41:07.333Z,101211.00
2018-09-17T20:43:35.666Z,101217.45
2018-09-17T20:46:04.257Z,101213.72
2018-09-17T20:48:32.700Z,101209.43
2018-09-17T20:51:01.059Z,101214.19
2018-09-17T20:53:29.391Z,101207.18
2018-09-17T20:55:59.379Z,101212.24
2018-09-17T20:58:28.577Z,101213.96
2018-09-17T21:00:57.791Z,101209.45
2018-09-17T21:03:28.131Z,101208.32
2018-09-17T21:05:58.704Z,101207.97
2018-09-17T21:08:29.537Z,101211.95
2018-09-17T21:10:58.865Z,101213.88
2018-09-17T21:13:28.375Z,101210.27
2018-09-17T21:15:57.760Z,101209.32
2018-09-17T21:18:28.227Z,101207.03
2018-09-17T21:20:57.027Z,101205.00
2018-09-17T21:23:26.982Z,101209.05
2018-09-17T21:25:57.573Z,101208.34
2018-09-17T21:28:26.114Z,101203.42
2018-09-17T21:30:56.023Z,101201.30
2018-09-17T21:33:26.115Z,101202.05
2018-09-17T21:35:56.626Z,101202.77
2018-09-17T21:38:26.101Z,101199.56
2018-09-17T21:40:57.125Z,101200.98
2018-09-17T21:43:26.486Z,101194.77
2018-09-17T21:45:55.464Z,101190.95
2018-09-17T21:48:26.241Z,101193.22
2018-09-17T21:50:57.276Z,101193.97
2018-09-17T21:53:26.812Z,101197.20
2018-09-17T21:55:56.953Z,101189.08
2018-09-17T21:58:27.490Z,101194.58
2018-09-17T22:01:01.869Z,101192.42
2018-09-17T22:03:31.693Z,101186.34
2018-09-17T22:06:02.197Z,101190.05
2018-09-17T22:08:32.011Z,101191.38
2018-09-17T22:11:01.462Z,101187.77
2018-09-17T22:13:29.994Z,101194.34
2018-09-17T22:15:59.313Z,101188.84
2018-09-17T22:18:28.284Z,101187.89
2018-09-17T22:20:56.978Z,101183.95
2018-09-17T22:23:26.834Z,101189.45
2018-09-17T22:25:56.820Z,101185.73
2018-09-17T22:28:26.849Z,101188.50
2018-09-17T22:30:57.449Z,101183.95
2018-09-17T22:33:26.769Z,101189.95
2018-09-17T22:35:56.026Z,101189.81
2018-09-17T22:38:25.487Z,101192.58
2018-09-17T22:40:54.801Z,101188.64
2018-09-17T22:43:25.001Z,101184.22
2018-09-17T22:45:54.097Z,101180.88
2018-09-17T22:48:22.997Z,101183.74
2018-09-17T22:50:51.334Z,101187.22
2018-09-17T22:53:19.661Z,101185.56
2018-09-17T22:55:48.029Z,101180.77
2018-09-17T22:58:16.415Z,101180.19
2018-09-17T23:00:44.721Z,101180.30
2018-09-17T23:03:13.161Z,101177.08
2018-09-17T23:05:41.504Z,101174.11
2018-09-17T23:08:09.899Z,101172.69
2018-09-17T23:10:39.221Z,101167.66
2018-09-17T23:13:07.584Z,101168.87
2018-09-17T23:15:35.911Z,101163.13
2018-09-17T23:18:04.229Z,101165.28
2018-09-17T23:20:32.544Z,101160.73
2018-09-17T23:23:00.886Z,101164.81
2018-09-17T23:25:29.332Z,101159.79
2018-09-17T23:27:58.818Z,101172.81
2018-09-17T23:30:28.198Z,101163.37
2018-09-17T23:32:58.493Z,101166.96
2018-09-17T23:35:28.405Z,101166.72
2018-09-17T23:37:57.384Z,101158.83
2018-09-17T23:40:26.379Z,101156.92
2018-09-17T23:42:56.308Z,101165.28
2018-09-17T23:45:25.600Z,101163.02
2018-09-17T23:47:54.701Z,101159.63
2018-09-17T23:50:24.916Z,101166.24
2018-09-17T23:52:55.959Z,101159.16
2018-09-17T23:55:26.019Z,101161.80
2018-09-17T23:57:58.033Z,101165.48
